Time;durP1;ratioP1;P1;durP2;ratioP2;P2;SDS_P1;SDS_P2;PMS_P1;PMS_P2;Temp;Humidity;BMP_temperature;BMP_pressure;BME280_temperature;BME280_humidity;BME280_pressure;Samples;Min_cycle;Max_cycle;Signal;HPM_P1;HPM_P2
2023/03/11 00:01:22;;;;;;;7.27;2.67;;;;;;;-1.20;100.00;100487.28;10391844;28;20179;-72
2023/03/11 00:06:22;;;;;;;10.38;4.63;;;;;;;-1.27;100.00;100493.53;10484297;28;20059;-72
2023/03/11 00:11:23;;;;;;;15.57;6.68;;;;;;;-1.38;100.00;100496.81;10483247;28;20519;-74
2023/03/11 00:16:24;;;;;;;13.60;4.82;;;;;;;-1.59;100.00;100496.69;10437488;28;20049;-73
2023/03/11 00:21:25;;;;;;;10.88;3.95;;;;;;;-1.88;100.00;100504.34;10441840;28;20148;-72
2023/03/11 00:26:26;;;;;;;9.37;3.93;;;;;;;-2.13;100.00;100505.53;10450854;28;20114;-72
2023/03/11 00:31:27;;;;;;;17.33;3.50;;;;;;;-2.35;100.00;100512.91;10457210;28;20059;-72
2023/03/11 00:36:32;;;;;;;12.63;3.00;;;;;;;-2.61;100.00;100520.69;10459732;28;20279;-72
2023/03/11 00:41:33;;;;;;;14.00;4.68;;;;;;;-2.81;100.00;100523.19;10456812;28;20144;-73
2023/03/11 00:46:33;;;;;;;18.47;5.03;;;;;;;-2.83;100.00;100529.81;10459497;28;20034;-73
2023/03/11 00:51:34;;;;;;;12.03;3.27;;;;;;;-2.85;100.00;100536.47;10462494;28;20048;-72
2023/03/11 00:56:34;;;;;;;8.40;2.17;;;;;;;-2.77;100.00;100531.16;10462795;28;20531;-73
2023/03/11 01:01:35;;;;;;;11.50;4.30;;;;;;;-2.98;100.00;100539.50;10481386;28;20127;-73
2023/03/11 01:06:36;;;;;;;11.63;3.47;;;;;;;-2.95;100.00;100541.47;10441043;28;20462;-73
2023/03/11 01:11:36;;;;;;;8.33;4.63;;;;;;;-3.00;100.00;100550.34;10464446;28;20503;-73
2023/03/11 01:16:36;;;;;;;12.53;3.10;;;;;;;-3.01;100.00;100562.25;10444571;28;20113;-73
2023/03/11 01:21:37;;;;;;;6.37;2.97;;;;;;;-3.05;100.00;100566.94;10453335;28;20136;-72
2023/03/11 01:26:37;;;;;;;13.40;3.30;;;;;;;-3.15;100.00;100581.41;10456980;28;20045;-73
2023/03/11 01:31:38;;;;;;;9.27;3.60;;;;;;;-3.23;100.00;100579.75;10446961;28;20442;-73
2023/03/11 01:36:38;;;;;;;8.93;3.27;;;;;;;-3.20;100.00;100586.81;10458082;28;20044;-73
2023/03/11 01:41:39;;;;;;;10.93;3.63;;;;;;;-3.21;100.00;100588.47;10463891;28;20127;-73
2023/03/11 01:47:08;;;;;;;15.53;3.07;;;;;;;-3.20;100.00;100597.06;10463548;28;20171;-73
2023/03/11 01:52:09;;;;;;;11.20;4.28;;;;;;;-3.12;100.00;100591.94;10422865;28;20476;-73
2023/03/11 01:57:12;;;;;;;11.03;4.43;;;;;;;-3.16;100.00;100596.59;10446373;28;20140;-72
2023/03/11 02:02:33;;;;;;;13.38;4.20;;;;;;;-3.16;100.00;100600.06;10430317;28;20091;-73
2023/03/11 02:07:34;;;;;;;16.38;5.07;;;;;;;-3.21;100.00;100602.94;10442435;28;20045;-73
2023/03/11 02:12:35;;;;;;;8.73;3.33;;;;;;;-3.20;100.00;100595.41;10458939;28;20067;-73
2023/03/11 02:17:35;;;;;;;10.17;4.03;;;;;;;-3.29;100.00;100597.06;10432881;28;20041;-72
2023/03/11 02:22:36;;;;;;;5.93;2.40;;;;;;;-3.33;100.00;100600.97;10450246;28;20067;-73
2023/03/11 02:27:38;;;;;;;12.70;3.23;;;;;;;-3.31;100.00;100603.69;10495185;28;20572;-72
2023/03/11 02:32:38;;;;;;;;;;;;;;;-3.35;100.00;100602.47;10462607;28;20062;-73
2023/03/11 02:37:44;;;;;;;26.60;4.15;;;;;;;-3.49;100.00;100598.56;10422865;28;20344;-73
2023/03/11 02:42:44;;;;;;;12.30;3.60;;;;;;;-3.52;100.00;100599.91;10446306;28;20037;-72
2023/03/11 02:47:45;;;;;;;7.17;3.33;;;;;;;-3.47;100.00;100598.69;10460713;28;20120;-72
2023/03/11 02:52:47;;;;;;;14.80;5.30;;;;;;;-3.41;100.00;100594.19;10458492;28;20131;-72
2023/03/11 02:57:48;;;;;;;15.65;3.95;;;;;;;-3.43;100.00;100593.13;10443134;28;20037;-73
2023/03/11 03:02:52;;;;;;;6.90;3.40;;;;;;;-3.45;100.00;100597.19;10456760;28;20124;-73
2023/03/11 03:07:52;;;;;;;8.20;2.13;;;;;;;-3.45;100.00;100599.75;10449297;28;20037;-72
2023/03/11 03:12:53;;;;;;;12.40;5.23;;;;;;;-3.54;100.00;100605.75;10427000;28;20124;-73
2023/03/11 03:17:53;;;;;;;9.97;4.17;;;;;;;-3.64;100.00;100615.84;10443039;28;20686;-73
2023/03/11 03:22:54;;;;;;;26.47;5.13;;;;;;;-3.78;100.00;100621.22;10478767;28;20120;-73
2023/03/11 03:27:54;;;;;;;6.80;3.30;;;;;;;-3.81;100.00;100624.38;10464767;28;20064;-72
2023/03/11 03:32:55;;;;;;;10.53;4.90;;;;;;;-3.85;100.00;100638.50;10458681;28;20424;-72
2023/03/11 03:37:55;;;;;;;13.20;6.13;;;;;;;-3.75;100.00;100630.13;10460347;28;20033;-73
2023/03/11 03:42:56;;;;;;;12.03;5.70;;;;;;;-3.76;100.00;100645.31;10453349;28;20120;-73
2023/03/11 03:47:56;;;;;;;13.60;6.37;;;;;;;-3.90;100.00;100659.25;10453296;28;20430;-73
2023/03/11 03:52:57;;;;;;;18.97;5.93;;;;;;;-3.94;100.00;100652.91;10458312;28;20449;-73
2023/03/11 03:57:57;;;;;;;21.67;7.17;;;;;;;-3.97;100.00;100664.50;10460758;28;20087;-73
2023/03/11 04:02:58;;;;;;;12.57;5.40;;;;;;;-4.17;100.00;100661.69;10481079;28;20052;-73
2023/03/11 04:07:59;;;;;;;15.43;6.70;;;;;;;-4.18;100.00;100657.34;10469018;28;20133;-73
2023/03/11 04:12:59;;;;;;;14.48;5.70;;;;;;;-4.21;100.00;100669.78;10449509;28;20037;-73
2023/03/11 04:18:00;;;;;;;7.97;4.10;;;;;;;-4.20;100.00;100670.72;10454890;28;20061;-73
2023/03/11 04:23:00;;;;;;;12.40;4.57;;;;;;;-4.28;100.00;100672.47;10453602;28;20127;-73
2023/03/11 04:28:01;;;;;;;15.27;6.37;;;;;;;-4.34;100.00;100675.31;10456164;28;20476;-74
2023/03/11 04:33:02;;;;;;;11.33;5.43;;;;;;;-4.39;100.00;100665.34;10441061;28;20123;-74
2023/03/11 04:38:02;;;;;;;6.73;4.20;;;;;;;-4.45;100.00;100681.84;10450479;28;20036;-73
2023/03/11 04:43:03;;;;;;;13.13;6.37;;;;;;;-4.43;100.00;100687.13;10452176;28;20051;-73
2023/03/11 04:48:03;;;;;;;19.03;8.20;;;;;;;-4.46;100.00;100677.47;10436645;28;20135;-73
2023/03/11 04:53:04;;;;;;;11.83;7.07;;;;;;;-4.48;100.00;100684.06;10453184;28;20064;-73
2023/03/11 04:58:04;;;;;;;16.07;8.30;;;;;;;-4.53;100.00;100679.25;10446847;28;20466;-73
2023/03/11 05:03:05;;;;;;;27.27;7.23;;;;;;;-4.40;100.00;100691.63;10442995;28;20128;-74
2023/03/11 05:08:05;;;;;;;27.83;7.27;;;;;;;-4.44;100.00;100686.19;10437773;28;20050;-73
2023/03/11 05:13:06;;;;;;;16.90;8.13;;;;;;;-4.49;100.00;100687.38;10437982;28;20083;-73
2023/03/11 05:18:06;;;;;;;15.37;7.83;;;;;;;-4.42;100.00;100706.81;10440206;28;20048;-73
2023/03/11 05:23:07;;;;;;;20.53;10.10;;;;;;;-4.49;100.00;100697.59;10437882;28;20141;-74
2023/03/11 05:28:07;;;;;;;19.10;7.67;;;;;;;-4.47;100.00;100711.44;10427957;28;20073;-73
2023/03/11 05:33:08;;;;;;;16.90;7.87;;;;;;;-4.43;100.00;100711.00;10443503;28;20560;-73
2023/03/11 05:38:08;;;;;;;13.97;6.47;;;;;;;-4.46;100.00;100712.34;10442346;28;20048;-73
2023/03/11 05:43:09;;;;;;;17.80;10.73;;;;;;;-4.46;100.00;100718.34;10458507;28;20063;-73
2023/03/11 05:48:09;;;;;;;32.60;11.83;;;;;;;-4.45;100.00;100725.28;10474447;28;20170;-72
2023/03/11 05:53:10;;;;;;;16.03;10.73;;;;;;;-4.48;100.00;100737.72;10462222;28;20131;-72
2023/03/11 05:58:10;;;;;;;15.90;9.63;;;;;;;-4.52;100.00;100735.59;10460450;28;20043;-74
2023/03/11 06:03:11;;;;;;;17.63;9.53;;;;;;;-4.43;100.00;100734.00;10430362;28;20038;-73
2023/03/11 06:08:12;;;;;;;31.13;14.00;;;;;;;-4.38;100.00;100734.50;10432226;28;20170;-74
2023/03/11 06:13:12;;;;;;;21.77;12.03;;;;;;;-4.35;100.00;100737.38;10440241;28;20116;-74
2023/03/11 06:18:12;;;;;;;26.97;15.43;;;;;;;-4.37;100.00;100736.31;10440596;28;20208;-74
2023/03/11 06:23:13;;;;;;;28.17;14.23;;;;;;;-4.32;100.00;100740.25;10450847;28;20051;-73
2023/03/11 06:28:13;;;;;;;31.50;15.27;;;;;;;-4.27;100.00;100761.16;10457134;28;20398;-73
2023/03/11 06:33:14;;;;;;;24.70;14.70;;;;;;;-4.18;100.00;100763.81;10473529;28;20111;-74
2023/03/11 06:38:14;;;;;;;24.97;16.17;;;;;;;-4.14;100.00;100771.03;10472890;28;20037;-74
2023/03/11 06:43:15;;;;;;;30.40;17.10;;;;;;;-4.13;100.00;100772.84;10470122;28;20462;-73
2023/03/11 06:48:15;;;;;;;30.33;14.50;;;;;;;-4.05;100.00;100782.22;10463566;28;20064;-73
2023/03/11 06:53:16;;;;;;;27.17;16.07;;;;;;;-3.87;100.00;100798.56;10447586;28;20115;-73
2023/03/11 06:58:16;;;;;;;23.37;16.40;;;;;;;-3.21;100.00;100802.59;10480705;28;20124;-73
2023/03/11 07:03:17;;;;;;;25.33;12.47;;;;;;;-2.83;100.00;100811.59;10424478;28;20188;-74
2023/03/11 07:08:17;;;;;;;21.63;13.73;;;;;;;-1.92;100.00;100818.66;10462261;28;20127;-73
2023/03/11 07:13:18;;;;;;;19.05;10.77;;;;;;;-0.99;100.00;100829.97;10462309;28;20071;-73
2023/03/11 07:18:18;;;;;;;14.95;9.48;;;;;;;0.16;100.00;100836.81;10465651;28;20045;-74
2023/03/11 07:23:19;;;;;;;12.65;6.80;;;;;;;1.69;100.00;100848.94;10485863;28;20140;-74
2023/03/11 07:28:21;;;;;;;11.00;6.60;;;;;;;2.20;100.00;100843.66;10484934;28;20083;-74
2023/03/11 07:33:23;;;;;;;7.35;4.90;;;;;;;3.15;100.00;100843.28;10472069;28;20082;-74
2023/03/11 07:38:23;;;;;;;10.10;4.50;;;;;;;3.94;100.00;100814.63;10436305;28;20519;-74
2023/03/11 07:43:24;;;;;;;14.82;7.10;;;;;;;4.37;100.00;100825.50;10405791;28;20129;-73
2023/03/11 07:48:25;;;;;;;13.37;6.43;;;;;;;3.28;100.00;100821.84;10469410;28;20481;-74
2023/03/11 07:53:26;;;;;;;9.48;5.82;;;;;;;2.75;100.00;100825.59;10414845;28;20038;-73
2023/03/11 07:58:26;;;;;;;10.63;4.43;;;;;;;2.24;100.00;100838.75;10434696;28;20119;-73
2023/03/11 08:03:27;;;;;;;12.07;5.18;;;;;;;1.41;100.00;100842.38;10443616;28;20533;-73
2023/03/11 08:08:27;;;;;;;15.40;6.57;;;;;;;1.11;100.00;100844.16;10462043;28;20075;-73
2023/03/11 08:13:28;;;;;;;12.40;5.63;;;;;;;0.92;100.00;100858.84;10443780;28;20056;-73
2023/03/11 08:18:29;;;;;;;12.27;5.72;;;;;;;0.85;100.00;100858.31;10442889;28;20041;-72
2023/03/11 08:23:30;;;;;;;13.68;6.20;;;;;;;0.97;100.00;100865.28;10428796;28;20072;-72
2023/03/11 08:28:30;;;;;;;9.98;5.43;;;;;;;1.12;100.00;100874.34;10405846;28;20417;-72
2023/03/11 08:33:31;;;;;;;12.77;5.97;;;;;;;1.36;100.00;100866.00;10401973;28;20049;-72
2023/03/11 08:38:31;;;;;;;16.17;6.13;;;;;;;1.46;100.00;100866.00;10401837;28;20124;-72
2023/03/11 08:43:32;;;;;;;10.32;4.78;;;;;;;1.65;100.00;100864.94;10402030;28;20088;-72
2023/03/11 08:48:32;;;;;;;7.32;4.18;;;;;;;1.82;100.00;100867.25;10432942;28;20041;-73
2023/03/11 08:53:33;;;;;;;12.95;4.13;;;;;;;2.16;100.00;100867.44;10432834;28;20042;-72
2023/03/11 08:58:33;;;;;;;19.20;4.47;;;;;;;2.52;100.00;100869.38;10400855;28;20108;-73
2023/03/11 09:03:34;;;;;;;4.90;2.65;;;;;;;2.85;100.00;100867.66;10401581;28;20539;-72
2023/03/11 09:08:35;;;;;;;7.78;2.47;;;;;;;3.19;100.00;100884.13;10400494;28;20033;-72
2023/03/11 09:13:35;;;;;;;9.23;3.85;;;;;;;3.76;100.00;100889.25;10400209;28;20072;-73
2023/03/11 09:18:36;;;;;;;5.82;3.00;;;;;;;4.45;100.00;100895.13;10405957;28;20533;-72
2023/03/11 09:23:36;;;;;;;7.47;3.15;;;;;;;4.72;100.00;100895.31;10408920;28;20120;-73
2023/03/11 09:28:37;;;;;;;3.35;1.50;;;;;;;4.55;100.00;100900.19;10408603;28;20374;-73
2023/03/11 09:33:38;;;;;;;8.15;2.55;;;;;;;4.37;100.00;100895.47;10438547;28;20452;-72
2023/03/11 09:38:39;;;;;;;4.55;1.65;;;;;;;4.59;100.00;100894.44;10489455;28;20056;-72
2023/03/11 09:44:06;;;;;;;6.05;1.65;;;;;;;5.10;100.00;100892.88;10450174;28;20124;-73
2023/03/11 09:49:22;;;;;;;5.25;3.08;;;;;;;6.11;100.00;100896.19;10478766;28;20041;-73
2023/03/11 09:54:23;;;;;;;3.20;2.10;;;;;;;7.31;89.45;100902.03;10447575;28;20045;-73
2023/03/11 09:59:30;;;;;;;4.47;1.60;;;;;;;10.91;70.25;100910.91;10430603;28;20057;-73
2023/03/11 10:04:34;;;;;;;4.75;1.83;;;;;;;12.46;56.12;100919.38;10459129;28;20124;-73
2023/03/11 10:09:51;;;;;;;3.65;0.80;;;;;;;12.74;49.91;100899.47;10459843;28;20044;-72
2023/03/11 10:14:54;;;;;;;4.18;1.45;;;;;;;13.25;52.50;100904.06;10442694;28;20094;-73
2023/03/11 10:20:22;;;;;;;2.35;0.95;;;;;;;13.88;48.91;100904.56;10429993;28;20037;-73
2023/03/11 10:25:48;;;;;;;5.53;0.98;;;;;;;10.39;51.93;100911.88;10445703;28;20033;-73
2023/03/11 10:31:17;;;;;;;4.32;1.20;;;;;;;8.34;48.81;100914.13;10438959;28;20396;-74
2023/03/11 10:36:30;;;;;;;3.58;1.45;;;;;;;6.67;58.61;100918.88;10444642;28;20124;-72
2023/03/11 10:41:37;;;;;;;3.67;1.33;;;;;;;6.34;62.93;100915.88;10440510;28;20029;-72
2023/03/11 10:46:37;;;;;;;7.20;1.90;;;;;;;6.59;59.32;100921.00;10404962;28;20428;-72
2023/03/11 10:51:38;;;;;;;4.53;1.85;;;;;;;6.14;61.15;100912.88;10406423;28;20076;-72
2023/03/11 10:56:39;;;;;;;2.92;0.80;;;;;;;5.57;65.67;100938.47;10410286;28;20115;-72
2023/03/11 11:01:39;;;;;;;7.10;2.37;;;;;;;5.24;74.45;100944.84;10423713;28;20481;-72
2023/03/11 11:06:40;;;;;;;1.90;0.80;;;;;;;5.00;76.81;100948.38;10446288;28;20065;-72
2023/03/11 11:11:41;;;;;;;12.85;2.42;;;;;;;6.81;72.29;100944.88;10443699;28;20068;-71
2023/03/11 11:16:42;;;;;;;5.50;1.50;;;;;;;7.27;64.01;100934.75;10442561;28;20043;-72
2023/03/11 11:21:48;;;;;;;5.68;1.20;;;;;;;8.03;62.18;100941.00;10463742;28;20571;-72
2023/03/11 11:27:25;;;;;;;1.88;1.20;;;;;;;11.82;55.88;100926.28;10476568;28;20115;-71
2023/03/11 11:32:26;;;;;;;3.05;0.93;;;;;;;12.22;50.58;100928.03;10443777;28;20061;-71
2023/03/11 11:37:31;;;;;;;4.25;1.10;;;;;;;10.64;52.32;100932.34;10441048;28;20033;-71
2023/03/11 11:42:31;;;;;;;4.55;1.27;;;;;;;8.96;55.05;100923.75;10440922;28;20029;-71
2023/03/11 11:47:33;;;;;;;5.13;1.17;;;;;;;8.10;55.08;100924.03;10459930;28;20041;-71
2023/03/11 11:52:39;;;;;;;3.80;1.80;;;;;;;8.06;54.20;100929.06;10500976;28;20062;-71
2023/03/11 11:57:40;;;;;;;3.60;1.77;;;;;;;7.08;58.51;100924.00;10442417;28;20061;-71
2023/03/11 12:03:06;;;;;;;2.17;1.27;;;;;;;6.26;64.10;100923.19;10451951;28;20048;-71
2023/03/11 12:08:40;;;;;;;6.00;1.60;;;;;;;6.43;63.68;100932.09;10468241;28;20045;-71
2023/03/11 12:14:07;;;;;;;5.30;1.50;;;;;;;8.73;61.11;100925.06;10482694;28;20060;-71
2023/03/11 12:19:10;;;;;;;2.53;1.58;;;;;;;10.05;52.32;100912.81;10400614;28;20481;-71
2023/03/11 12:24:50;;;;;;;6.47;1.73;;;;;;;10.21;54.82;100912.75;10420315;28;20556;-71
2023/03/11 12:29:54;;;;;;;3.83;1.10;;;;;;;11.48;49.12;100914.31;10435604;28;20067;-72
2023/03/11 12:34:59;;;;;;;7.75;1.33;;;;;;;9.96;53.93;100923.72;10447035;28;20408;-71
2023/03/11 12:39:59;;;;;;;3.25;1.38;;;;;;;12.15;46.02;100913.78;10440464;28;20045;-71
2023/03/11 12:45:26;;;;;;;3.30;1.75;;;;;;;13.78;41.34;100908.63;10439938;28;20115;-71
2023/03/11 12:50:38;;;;;;;5.97;1.33;;;;;;;14.70;42.03;100899.38;10452958;28;20047;-72
2023/03/11 12:55:38;;;;;;;2.05;1.00;;;;;;;14.26;40.55;100904.09;10470631;28;20125;-72
2023/03/11 13:00:58;;;;;;;4.80;1.55;;;;;;;14.13;42.23;100903.66;10433442;28;20174;-71
2023/03/11 13:06:40;;;;;;;9.18;3.22;;;;;;;12.52;43.27;100903.88;10414347;28;20045;-71
2023/03/11 13:11:42;;;;;;;2.47;1.20;;;;;;;12.78;41.68;100896.13;10410497;28;20103;-71
2023/03/11 13:16:46;;;;;;;3.92;1.30;;;;;;;13.07;38.53;100886.78;10429587;28;20025;-71
2023/03/11 13:21:47;;;;;;;2.75;1.00;;;;;;;13.61;40.73;100879.97;10439864;28;20059;-71
2023/03/11 13:27:00;;;;;;;2.72;1.42;;;;;;;13.68;40.91;100877.56;10456451;28;20115;-71
2023/03/11 13:32:15;;;;;;;3.25;1.08;;;;;;;12.51;42.40;100878.47;10448455;28;20033;-72
2023/03/11 13:37:19;;;;;;;5.75;2.45;;;;;;;13.51;40.29;100878.75;10440595;28;20527;-71
2023/03/11 13:42:34;;;;;;;2.53;1.10;;;;;;;14.73;39.52;100877.50;10439782;28;20044;-71
2023/03/11 13:47:35;;;;;;;2.88;1.00;;;;;;;14.74;37.91;100885.47;10399445;28;20072;-71
2023/03/11 13:52:38;;;;;;;4.32;1.92;;;;;;;13.91;40.88;100887.16;10431997;28;20109;-71
2023/03/11 13:57:38;;;;;;;2.75;1.40;;;;;;;13.40;39.18;100895.84;10397766;28;20033;-71
2023/03/11 14:02:41;;;;;;;4.82;1.50;;;;;;;14.17;35.96;100891.50;10400723;28;20061;-71
2023/03/11 14:07:42;;;;;;;5.28;1.20;;;;;;;13.62;38.64;100891.38;10393348;28;20041;-72
2023/03/11 14:12:42;;;;;;;6.90;1.48;;;;;;;14.23;38.79;100895.25;10426200;28;20045;-71
2023/03/11 14:17:43;;;;;;;4.53;0.90;;;;;;;13.83;36.14;100899.16;10414661;28;20037;-72
2023/03/11 14:22:45;;;;;;;3.35;1.52;;;;;;;13.38;35.56;100908.03;10448155;28;20041;-72
2023/03/11 14:27:52;;;;;;;3.22;1.02;;;;;;;13.29;38.09;100913.84;10478178;28;20060;-71
2023/03/11 14:33:17;;;;;;;2.47;1.67;;;;;;;13.88;36.74;100905.47;10457021;28;20045;-71
2023/03/11 14:38:20;;;;;;;3.58;1.15;;;;;;;13.60;38.58;100909.75;10483108;28;20041;-72
2023/03/11 14:43:23;;;;;;;4.85;1.20;;;;;;;12.69;36.45;100908.91;10446082;28;20037;-72
2023/03/11 14:48:31;;;;;;;3.15;1.60;;;;;;;13.62;34.37;100899.28;10465986;28;20040;-72
2023/03/11 14:53:39;;;;;;;6.28;2.45;;;;;;;13.50;36.40;100907.63;10448591;28;20040;-72
2023/03/11 14:58:42;;;;;;;7.65;3.08;;;;;;;13.27;40.00;100912.91;10448945;28;20067;-72
2023/03/11 15:04:07;;;;;;;3.97;1.38;;;;;;;12.99;39.74;100924.06;10445220;28;20029;-71
2023/03/11 15:09:14;;;;;;;3.25;1.20;;;;;;;13.47;37.84;100928.53;10436236;28;20068;-72
2023/03/11 15:14:19;;;;;;;5.57;2.97;;;;;;;12.62;39.57;100921.78;10446099;28;20033;-72
2023/03/11 15:19:23;;;;;;;4.15;1.45;;;;;;;12.07;40.11;100916.88;10446285;28;20037;-71
2023/03/11 15:24:27;;;;;;;6.00;2.10;;;;;;;12.47;39.08;100921.16;10445832;28;20508;-72
2023/03/11 15:29:28;;;;;;;6.95;1.40;;;;;;;11.13;43.06;100907.56;10443729;28;20496;-72
2023/03/11 15:34:30;;;;;;;3.85;1.88;;;;;;;10.06;43.07;100909.38;10443297;28;20179;-72
2023/03/11 15:39:30;;;;;;;5.65;2.30;;;;;;;8.85;52.03;100908.28;10433156;28;20377;-70
2023/03/11 15:44:39;;;;;;;5.00;1.40;;;;;;;7.77;51.29;100901.28;10456644;28;20049;-71
2023/03/11 15:49:40;;;;;;;3.95;2.10;;;;;;;7.78;48.77;100909.19;10431795;28;20045;-71
2023/03/11 15:54:40;;;;;;;3.95;1.60;;;;;;;7.07;53.77;100917.00;10474964;28;20087;-71
2023/03/11 15:59:42;;;;;;;4.32;1.83;;;;;;;7.00;51.97;100916.63;10443935;28;20507;-71
2023/03/11 16:04:42;;;;;;;4.03;2.23;;;;;;;6.51;54.24;100924.81;10439187;28;20036;-71
2023/03/11 16:09:43;;;;;;;5.32;2.95;;;;;;;6.09;56.55;100927.25;10454687;28;20307;-71
2023/03/11 16:14:44;;;;;;;4.43;1.40;;;;;;;5.77;62.61;100928.56;10454255;28;20033;-71
2023/03/11 16:19:45;;;;;;;4.53;1.17;;;;;;;5.09;66.09;100932.59;10441410;28;20601;-71
2023/03/11 16:24:47;;;;;;;2.35;1.30;;;;;;;4.47;65.68;100933.34;10456860;28;20207;-71
2023/03/11 16:29:47;;;;;;;5.68;1.98;;;;;;;4.06;69.36;100931.19;10465361;28;20063;-71
2023/03/11 16:34:48;;;;;;;6.10;2.00;;;;;;;3.74;69.50;100929.66;10484200;28;20059;-70
2023/03/11 16:39:48;;;;;;;3.40;1.30;;;;;;;3.43;69.13;100930.78;10454052;28;20082;-70
2023/03/11 16:44:49;;;;;;;9.77;2.00;;;;;;;3.21;66.31;100928.22;10442432;28;20443;-72
2023/03/11 16:49:52;;;;;;;2.95;1.50;;;;;;;2.88;76.71;100935.13;10443603;28;20041;-71
2023/03/11 16:54:52;;;;;;;6.07;2.20;;;;;;;2.47;90.01;100937.09;10437910;28;20098;-71
2023/03/11 16:59:53;;;;;;;2.28;1.10;;;;;;;2.21;96.18;100932.34;10432082;28;20137;-72
2023/03/11 17:04:54;;;;;;;8.98;1.52;;;;;;;1.88;98.30;100937.47;10431471;28;20571;-71
2023/03/11 17:09:55;;;;;;;3.30;1.38;;;;;;;1.58;100.00;100936.69;10442328;28;20135;-71
2023/03/11 17:14:55;;;;;;;5.25;1.77;;;;;;;1.08;100.00;100944.44;10448674;28;20548;-71
2023/03/11 17:19:56;;;;;;;1.83;1.15;;;;;;;0.61;100.00;100951.47;10461318;28;20120;-72
2023/03/11 17:24:56;;;;;;;3.92;1.60;;;;;;;0.32;100.00;100942.97;10413143;28;20196;-71
2023/03/11 17:29:58;;;;;;;9.90;1.77;;;;;;;0.10;100.00;100945.25;10393663;28;20049;-71
2023/03/11 17:34:58;;;;;;;5.30;1.20;;;;;;;0.02;100.00;100946.25;10408261;28;20037;-71
2023/03/11 17:39:59;;;;;;;2.70;1.13;;;;;;;-0.16;100.00;100946.38;10423386;28;20025;-71
2023/03/11 17:44:59;;;;;;;4.78;2.25;;;;;;;-0.27;100.00;100954.75;10445749;28;20117;-71
2023/03/11 17:50:01;;;;;;;6.75;2.67;;;;;;;-0.46;100.00;100958.19;10446210;28;20493;-71
2023/03/11 17:55:02;;;;;;;5.57;1.35;;;;;;;-0.64;100.00;100955.72;10428345;28;20139;-71
2023/03/11 18:00:05;;;;;;;3.45;1.83;;;;;;;-0.84;100.00;100961.56;10424485;28;20037;-72
2023/03/11 18:05:06;;;;;;;6.43;2.28;;;;;;;-1.12;100.00;100963.16;10457564;28;20518;-71
2023/03/11 18:10:07;;;;;;;3.43;1.67;;;;;;;-1.46;100.00;100953.13;10475915;28;20049;-71
2023/03/11 18:15:13;;;;;;;2.92;1.27;;;;;;;-1.50;100.00;100953.59;10449404;28;20037;-71
2023/03/11 18:20:13;;;;;;;7.88;3.10;;;;;;;-1.69;100.00;100959.50;10432769;28;20132;-71
2023/03/11 18:25:14;;;;;;;2.77;1.53;;;;;;;-1.79;100.00;100973.06;10433066;28;20488;-70
2023/03/11 18:30:15;;;;;;;6.22;3.47;;;;;;;-1.90;100.00;100983.91;10419831;28;20038;-70
2023/03/11 18:35:16;;;;;;;9.00;2.27;;;;;;;-1.88;100.00;100989.22;10418833;28;20044;-71
2023/03/11 18:40:17;;;;;;;3.10;1.63;;;;;;;-1.97;100.00;100996.91;10444229;28;20396;-71
2023/03/11 18:45:18;;;;;;;9.52;1.70;;;;;;;-2.01;100.00;100987.09;10413739;28;20071;-71
2023/03/11 18:50:19;;;;;;;4.57;1.50;;;;;;;-2.04;100.00;100986.78;10435597;28;20045;-71
2023/03/11 18:55:19;;;;;;;6.10;2.70;;;;;;;-2.07;100.00;100998.53;10410089;28;20188;-71
2023/03/11 19:00:22;;;;;;;2.73;1.70;;;;;;;-2.24;100.00;100999.44;10429697;28;20051;-71
2023/03/11 19:05:22;;;;;;;5.90;1.92;;;;;;;-2.36;100.00;100998.19;10453224;28;20380;-71
2023/03/11 19:10:23;;;;;;;6.77;2.90;;;;;;;-2.51;100.00;101010.34;10427677;28;20131;-71
2023/03/11 19:15:24;;;;;;;5.80;3.00;;;;;;;-2.68;100.00;101004.38;10453585;28;20126;-70
2023/03/11 19:20:25;;;;;;;4.93;2.20;;;;;;;-2.69;100.00;101007.72;10454934;28;20055;-71
2023/03/11 19:25:26;;;;;;;8.18;2.70;;;;;;;-2.80;100.00;101008.25;10457517;28;20694;-71
2023/03/11 19:30:27;;;;;;;8.77;2.40;;;;;;;-2.83;100.00;101013.06;10434416;28;20029;-71
2023/03/11 19:35:27;;;;;;;9.97;1.97;;;;;;;-2.93;100.00;101015.41;10459002;28;20054;-71
2023/03/11 19:40:29;;;;;;;5.33;2.47;;;;;;;-3.03;100.00;101006.78;10425564;28;20637;-71
2023/03/11 19:45:29;;;;;;;5.85;2.92;;;;;;;-2.93;100.00;101013.78;10442840;28;20056;-70
2023/03/11 19:50:30;;;;;;;10.77;4.20;;;;;;;-2.96;100.00;101018.59;10436312;28;20120;-71
2023/03/11 19:55:30;;;;;;;7.43;4.23;;;;;;;-2.90;100.00;101024.34;10423817;28;20493;-72
2023/03/11 20:00:31;;;;;;;10.30;4.23;;;;;;;-2.91;100.00;101031.84;10464568;28;20148;-71
2023/03/11 20:05:40;;;;;;;11.55;5.15;;;;;;;-3.03;100.00;101026.38;10440569;28;20118;-72
2023/03/11 20:10:43;;;;;;;6.70;2.97;;;;;;;-3.06;100.00;101026.06;10407226;28;20041;-71
2023/03/11 20:15:45;;;;;;;6.20;4.10;;;;;;;-3.12;100.00;101021.19;10457241;28;20033;-70
2023/03/11 20:20:47;;;;;;;6.15;4.18;;;;;;;-3.00;100.00;101034.38;10420853;28;20473;-70
2023/03/11 20:25:48;;;;;;;;;;;;;;;-2.93;100.00;101025.66;10432016;28;20037;-71
2023/03/11 20:30:49;;;;;;;6.32;3.67;;;;;;;-2.91;100.00;101031.84;10421044;28;20372;-70
2023/03/11 20:36:01;;;;;;;8.90;5.28;;;;;;;-2.82;100.00;101018.38;10408068;28;20045;-70
2023/03/11 20:41:06;;;;;;;12.70;6.05;;;;;;;-2.73;100.00;101014.94;10448420;28;20051;-70
2023/03/11 20:46:08;;;;;;;12.70;5.00;;;;;;;-2.65;100.00;101019.19;10428232;28;20477;-70
2023/03/11 20:51:11;;;;;;;15.00;6.17;;;;;;;-2.54;100.00;101013.50;10425514;28;20128;-70
2023/03/11 20:56:23;;;;;;;8.80;6.15;;;;;;;-2.41;100.00;101009.63;10452656;28;20287;-71
2023/03/11 21:01:27;;;;;;;8.82;4.97;;;;;;;-2.32;100.00;101019.91;10440681;28;20175;-71
2023/03/11 21:06:33;;;;;;;9.38;5.15;;;;;;;-2.25;100.00;101018.13;10439610;28;20575;-70
2023/03/11 21:11:34;;;;;;;14.02;7.95;;;;;;;-2.21;100.00;101021.91;10443894;28;20484;-70
2023/03/11 21:16:35;;;;;;;7.97;5.47;;;;;;;-2.24;100.00;101016.44;10461496;28;20072;-70
2023/03/11 21:21:36;;;;;;;10.85;7.35;;;;;;;-2.27;100.00;101009.38;10448582;28;20052;-70
2023/03/11 21:26:39;;;;;;;12.77;8.73;;;;;;;-2.26;100.00;101008.63;10458179;28;20051;-69
2023/03/11 21:31:40;;;;;;;11.82;7.53;;;;;;;-2.13;100.00;101005.63;10412733;28;20038;-71
2023/03/11 21:36:40;;;;;;;15.17;9.57;;;;;;;-2.03;100.00;101015.16;10411791;28;20037;-70
2023/03/11 21:41:41;;;;;;;11.10;7.07;;;;;;;-1.99;100.00;101007.03;10406670;28;20075;-70
2023/03/11 21:46:41;;;;;;;9.97;5.73;;;;;;;-1.89;100.00;101003.69;10435595;28;20123;-72
2023/03/11 21:51:42;;;;;;;12.38;7.78;;;;;;;-1.81;100.00;101007.03;10450407;28;20540;-71
2023/03/11 21:56:42;;;;;;;13.23;8.05;;;;;;;-1.73;100.00;100997.50;10444514;28;20124;-71
2023/03/11 22:01:43;;;;;;;11.70;5.87;;;;;;;-1.61;100.00;101000.41;10467570;28;20132;-71
2023/03/11 22:06:43;;;;;;;10.20;7.70;;;;;;;-1.56;100.00;101002.66;10464631;28;20148;-72
2023/03/11 22:11:44;;;;;;;20.10;9.33;;;;;;;-1.53;100.00;101002.06;10447628;28;20033;-73
2023/03/11 22:16:44;;;;;;;9.30;7.13;;;;;;;-1.43;100.00;101006.41;10453679;28;20544;-71
2023/03/11 22:21:45;;;;;;;15.95;7.15;;;;;;;-1.38;100.00;101002.63;10484112;28;20115;-71
2023/03/11 22:26:45;;;;;;;12.07;6.88;;;;;;;-1.30;100.00;100996.59;10463708;28;20041;-71
2023/03/11 22:31:46;;;;;;;21.75;6.30;;;;;;;-1.25;100.00;100987.66;10445534;28;20041;-71
2023/03/11 22:36:46;;;;;;;16.55;7.32;;;;;;;-1.14;100.00;100995.50;10468925;28;20032;-71
2023/03/11 22:41:48;;;;;;;12.75;7.25;;;;;;;-1.09;100.00;100991.72;10454991;28;20047;-71
2023/03/11 22:46:49;;;;;;;13.25;7.95;;;;;;;-1.11;100.00;100986.44;10446444;28;21874;-71
2023/03/11 22:51:49;;;;;;;13.20;7.55;;;;;;;-1.09;100.00;100984.94;10512174;28;20040;-70
2023/03/11 22:56:50;;;;;;;11.13;5.80;;;;;;;-1.07;100.00;100987.63;10462281;28;20269;-71